Time;durP1;ratioP1;P1;durP2;ratioP2;P2;SDS_P1;SDS_P2;PMS_P1;PMS_P2;Temp;Humidity;BMP_temperature;BMP_pressure;BME280_temperature;BME280_humidity;BME280_pressure;Samples;Min_cycle;Max_cycle;Signal;HPM_P1;HPM_P2
2023/05/13 00:01:11;;;;;;;;;;;;;;;26.13;33.92;101467.84;4120313;28;19976;-66
2023/05/13 00:03:12;;;;;;;;;;;;;;;26.11;34.01;101465.31;4131081;28;20004;-66
2023/05/13 00:05:14;;;;;;;;;;;;;;;26.10;33.87;101462.72;4125290;28;20016;-67
2023/05/13 00:07:15;;;;;;;;;;;;;;;26.09;34.01;101461.91;4131065;28;19922;-66
2023/05/13 00:09:17;;;;;;;;;;;;;;;26.06;33.96;101462.13;4131803;28;19922;-66
2023/05/13 00:11:18;;;;;;;;;;;;;;;26.05;34.13;101462.28;4122349;28;19922;-66
2023/05/13 00:13:20;;;;;;;;;;;;;;;26.03;33.91;101462.41;4132542;28;19921;-66
2023/05/13 00:15:22;;;;;;;;;;;;;;;26.00;33.93;101468.06;4125218;28;19922;-66
2023/05/13 00:17:23;;;;;;;;;;;;;;;25.99;34.20;101464.53;4129134;28;20298;-67
2023/05/13 00:19:25;;;;;;;;;;;;;;;25.97;34.35;101471.91;4131737;28;19930;-66
2023/05/13 00:21:26;;;;;;;;;;;;;;;25.94;34.22;101474.88;4122216;28;19930;-66
2023/05/13 00:23:28;;;;;;;;;;;;;;;25.94;34.23;101476.69;4111420;28;20013;-66
2023/05/13 00:25:30;;;;;;;;;;;;;;;25.93;34.35;101475.00;4089773;29;19923;-66
2023/05/13 00:27:31;;;;;;;;;;;;;;;25.93;34.13;101472.31;4084187;29;19922;-66
2023/05/13 00:29:33;;;;;;;;;;;;;;;25.92;34.08;101473.28;4116465;28;20427;-66
2023/05/13 00:31:34;;;;;;;;;;;;;;;25.90;34.16;101469.91;4105603;28;19934;-66
2023/05/13 00:33:36;;;;;;;;;;;;;;;25.88;34.43;101472.72;4116013;28;19921;-67
2023/05/13 00:35:38;;;;;;;;;;;;;;;25.87;34.22;101470.16;4112543;28;19996;-66
2023/05/13 00:37:39;;;;;;;;;;;;;;;25.85;34.33;101475.69;4107411;28;19922;-67
2023/05/13 00:39:41;;;;;;;;;;;;;;;25.84;34.34;101479.38;4116925;28;19922;-66
2023/05/13 00:41:42;;;;;;;;;;;;;;;25.82;34.42;101479.50;4105490;28;20349;-66
2023/05/13 00:43:44;;;;;;;;;;;;;;;25.81;34.73;101474.28;4115749;28;19932;-67
2023/05/13 00:45:46;;;;;;;;;;;;;;;25.79;34.71;101484.31;4114168;28;19922;-67
2023/05/13 00:47:48;;;;;;;;;;;;;;;25.78;34.54;101479.91;4107633;28;19942;-66
2023/05/13 00:49:50;;;;;;;;;;;;;;;25.77;34.83;101478.19;4116946;28;20418;-67
2023/05/13 00:51:54;;;;;;;;;;;;;;;25.76;34.81;101471.97;4106531;28;19926;-66
2023/05/13 00:53:57;;;;;;;;;;;;;;;25.75;34.77;101475.66;4113866;28;19928;-67
2023/05/13 00:55:58;;;;;;;;;;;;;;;25.76;34.68;101477.38;4115042;28;19922;-68
2023/05/13 00:58:00;;;;;;;;;;;;;;;25.74;34.67;101478.50;4089374;28;19922;-66
2023/05/13 01:00:04;;;;;;;;;;;;;;;25.72;34.49;101484.00;4116427;28;19926;-66
2023/05/13 01:02:12;;;;;;;;;;;;;;;25.71;34.51;101476.91;4107398;28;19922;-67
2023/05/13 01:04:14;;;;;;;;;;;;;;;25.70;34.82;101482.44;4109695;28;19926;-67
2023/05/13 01:06:19;;;;;;;;;;;;;;;25.67;35.07;101487.09;4101713;28;20234;-66
2023/05/13 01:08:38;;;;;;;;;;;;;;;25.67;35.14;101480.84;4106162;28;19926;-67
2023/05/13 01:10:48;;;;;;;;;;;;;;;25.64;35.12;101473.91;4116328;28;19922;-67
2023/05/13 01:12:53;;;;;;;;;;;;;;;25.64;35.00;101481.16;4103858;28;19968;-66
2023/05/13 01:15:03;;;;;;;;;;;;;;;25.63;35.13;101482.97;4115393;28;20312;-66
2023/05/13 01:17:14;;;;;;;;;;;;;;;25.64;35.09;101476.59;4111870;28;19933;-67
2023/05/13 01:19:27;;;;;;;;;;;;;;;25.65;34.99;101482.81;4110309;28;20273;-66
2023/05/13 01:21:33;;;;;;;;;;;;;;;25.64;34.96;101481.16;4114391;28;19978;-66
2023/05/13 01:23:34;;;;;;;;;;;;;;;25.63;35.06;101469.50;4101538;28;20396;-66
2023/05/13 01:25:37;;;;;;;;;;;;;;;25.63;35.06;101482.13;4103406;28;19921;-66
2023/05/13 01:27:39;;;;;;;;;;;;;;;25.62;34.90;101475.03;4112127;28;20384;-67
2023/05/13 01:29:41;;;;;;;;;;;;;;;25.61;34.79;101476.00;4105785;28;19923;-66
2023/05/13 01:31:42;;;;;;;;;;;;;;;25.60;34.93;101471.63;4101326;28;20408;-66
2023/05/13 01:33:44;;;;;;;;;;;;;;;25.58;35.38;101482.53;4111649;28;19937;-67
2023/05/13 01:35:46;;;;;;;;;;;;;;;25.58;35.26;101481.66;4115819;28;19929;-67
2023/05/13 01:37:49;;;;;;;;;;;;;;;25.57;35.06;101480.81;4112323;28;19922;-66
2023/05/13 01:39:50;;;;;;;;;;;;;;;25.57;35.15;101488.91;4106954;28;20008;-66
2023/05/13 01:41:52;;;;;;;;;;;;;;;25.55;35.41;101485.47;4100320;28;19923;-66
2023/05/13 01:43:53;;;;;;;;;;;;;;;25.54;35.13;101483.75;4110747;28;19925;-66
2023/05/13 01:45:59;;;;;;;;;;;;;;;25.56;35.28;101491.72;4100154;29;20380;-66
2023/05/13 01:48:00;;;;;;;;;;;;;;;25.54;35.28;101488.31;4103704;28;20304;-67
2023/05/13 01:50:02;;;;;;;;;;;;;;;25.54;35.07;101488.31;4107735;28;19922;-66
2023/05/13 01:52:04;;;;;;;;;;;;;;;25.54;35.03;101497.22;4100068;29;20352;-67
2023/05/13 01:54:05;;;;;;;;;;;;;;;25.53;35.16;101487.47;4109646;28;19937;-67
2023/05/13 01:56:08;;;;;;;;;;;;;;;25.52;35.10;101494.69;4100643;28;19922;-66
2023/05/13 01:58:09;;;;;;;;;;;;;;;25.52;35.00;101492.00;4101892;28;19929;-67
2023/05/13 02:00:11;;;;;;;;;;;;;;;25.52;35.55;101493.84;4109287;28;19922;-67
2023/05/13 02:02:12;;;;;;;;;;;;;;;25.50;35.24;101487.72;4099648;29;19923;-67
2023/05/13 02:04:14;;;;;;;;;;;;;;;25.49;35.51;101497.66;4104541;28;19923;-66
2023/05/13 02:06:16;;;;;;;;;;;;;;;25.47;35.63;101491.53;4103217;28;20012;-66
2023/05/13 02:08:17;;;;;;;;;;;;;;;25.49;35.48;101502.19;4102937;28;19933;-67
2023/05/13 02:10:19;;;;;;;;;;;;;;;25.49;35.33;101500.34;4104715;28;19957;-66
2023/05/13 02:12:20;;;;;;;;;;;;;;;25.49;35.42;101500.34;4115663;28;19922;-67
2023/05/13 02:14:22;;;;;;;;;;;;;;;25.49;35.53;101496.78;4106468;28;19922;-66
2023/05/13 02:16:23;;;;;;;;;;;;;;;25.49;35.62;101494.09;4111259;28;19922;-66
2023/05/13 02:18:25;;;;;;;;;;;;;;;25.49;35.61;101497.66;4113653;28;19926;-67
2023/05/13 02:20:27;;;;;;;;;;;;;;;25.47;35.60;101485.28;4104705;28;19953;-65
2023/05/13 02:22:28;;;;;;;;;;;;;;;25.47;35.60;101485.28;4111421;28;19945;-66
2023/05/13 02:24:30;;;;;;;;;;;;;;;25.45;35.50;101493.50;4103948;28;19973;-66
2023/05/13 02:26:31;;;;;;;;;;;;;;;25.43;35.63;101498.19;4114766;28;19921;-66
2023/05/13 02:28:33;;;;;;;;;;;;;;;25.44;35.42;101493.66;4114464;28;20301;-66
2023/05/13 02:30:35;;;;;;;;;;;;;;;25.44;35.38;101488.25;4104052;28;19929;-66
2023/05/13 02:32:36;;;;;;;;;;;;;;;25.44;35.71;101488.25;4098004;28;20075;-66
2023/05/13 02:34:38;;;;;;;;;;;;;;;25.44;35.64;101490.97;4109655;28;19922;-66
2023/05/13 02:36:40;;;;;;;;;;;;;;;25.44;35.79;101489.09;4106486;28;19922;-65
2023/05/13 02:38:41;;;;;;;;;;;;;;;25.45;35.64;101482.72;4107567;28;20111;-66
2023/05/13 02:40:43;;;;;;;;;;;;;;;25.46;35.62;101489.00;4102836;28;19933;-66
2023/05/13 02:42:44;;;;;;;;;;;;;;;25.45;35.82;101484.59;4115242;28;19954;-66
2023/05/13 02:44:47;;;;;;;;;;;;;;;25.45;35.68;101481.91;4109855;28;19922;-66
2023/05/13 02:46:48;;;;;;;;;;;;;;;25.44;35.40;101482.88;4106295;28;19932;-66
2023/05/13 02:48:50;;;;;;;;;;;;;;;25.44;35.88;101482.88;4114782;28;19928;-66
2023/05/13 02:50:51;;;;;;;;;;;;;;;25.42;35.60;101476.75;4104596;28;19927;-68
2023/05/13 02:52:53;;;;;;;;;;;;;;;25.40;35.97;101476.91;4113265;28;19930;-66
2023/05/13 02:54:54;;;;;;;;;;;;;;;25.39;35.46;101480.56;4112332;28;19930;-66
2023/05/13 02:56:56;;;;;;;;;;;;;;;25.40;35.89;101492.22;4104134;28;19933;-65
2023/05/13 02:58:57;;;;;;;;;;;;;;;25.40;35.79;101487.69;4114857;28;19922;-65
2023/05/13 03:00:59;;;;;;;;;;;;;;;25.42;35.92;101490.22;4106120;28;19922;-66
2023/05/13 03:03:00;;;;;;;;;;;;;;;25.43;35.84;101487.44;4110913;28;19930;-65
2023/05/13 03:05:03;;;;;;;;;;;;;;;25.44;35.87;101489.09;4087866;29;19922;-65
2023/05/13 03:07:04;;;;;;;;;;;;;;;25.35;35.92;101476.44;4102173;28;19922;-66
2023/05/13 03:09:06;;;;;;;;;;;;;;;25.43;35.84;101492.81;4114877;28;19992;-65
2023/05/13 03:11:07;;;;;;;;;;;;;;;25.43;35.68;101497.31;4107803;28;20284;-65
2023/05/13 03:13:09;;;;;;;;;;;;;;;25.42;35.99;101495.63;4109745;28;20012;-65
2023/05/13 03:15:11;;;;;;;;;;;;;;;25.41;35.54;101492.09;4112287;28;20382;-65
2023/05/13 03:17:12;;;;;;;;;;;;;;;25.39;35.90;101491.34;4103326;28;19930;-65
2023/05/13 03:19:14;;;;;;;;;;;;;;;25.40;35.90;101492.22;4115070;28;20268;-66
2023/05/13 03:21:15;;;;;;;;;;;;;;;25.39;35.75;101495.91;4109244;28;19969;-66
2023/05/13 03:23:17;;;;;;;;;;;;;;;25.39;35.82;101494.03;4113890;28;19932;-66
2023/05/13 03:25:19;;;;;;;;;;;;;;;25.40;35.72;101486.84;4114100;28;19926;-65
2023/05/13 03:27:20;;;;;;;;;;;;;;;25.42;35.78;101495.63;4126537;28;20005;-66
2023/05/13 03:29:22;;;;;;;;;;;;;;;25.41;35.88;101494.78;4114845;28;19921;-66
2023/05/13 03:31:23;;;;;;;;;;;;;;;25.42;35.76;101501.00;4117491;28;20345;-65
2023/05/13 03:33:25;;;;;;;;;;;;;;;25.42;35.74;101492.91;4105936;28;19934;-65
2023/05/13 03:35:26;;;;;;;;;;;;;;;25.42;35.95;101490.22;4113651;28;19972;-65
2023/05/13 03:37:28;;;;;;;;;;;;;;;25.40;35.90;101498.44;4127241;28;19921;-67
2023/05/13 03:39:29;;;;;;;;;;;;;;;25.40;35.95;101500.31;4134215;28;20430;-66
2023/05/13 03:41:31;;;;;;;;;;;;;;;25.39;35.65;101499.44;4131886;28;19921;-67
2023/05/13 03:43:32;;;;;;;;;;;;;;;25.39;35.79;101499.44;4123430;28;19933;-67
2023/05/13 03:45:34;;;;;;;;;;;;;;;25.38;35.82;101497.72;4132341;28;20012;-67
2023/05/13 03:47:37;;;;;;;;;;;;;;;25.39;35.78;101498.59;4124824;28;19922;-66
2023/05/13 03:49:39;;;;;;;;;;;;;;;25.39;36.20;101499.44;4131081;28;20279;-66
2023/05/13 03:51:40;;;;;;;;;;;;;;;25.40;36.06;101503.84;4131893;28;19949;-66
2023/05/13 03:53:42;;;;;;;;;;;;;;;25.42;35.88;101501.00;4122646;28;19921;-66
2023/05/13 03:55:44;;;;;;;;;;;;;;;25.41;35.84;101494.78;4132700;28;20008;-66
2023/05/13 03:57:47;;;;;;;;;;;;;;;25.41;35.81;101505.53;4126093;28;20289;-66
2023/05/13 03:59:48;;;;;;;;;;;;;;;25.41;35.94;101505.53;4129285;28;20020;-67
2023/05/13 04:01:50;;;;;;;;;;;;;;;25.41;36.04;101510.94;4132039;28;20060;-66
2023/05/13 04:03:51;;;;;;;;;;;;;;;25.40;36.08;101505.69;4121969;28;20017;-66
2023/05/13 04:05:53;;;;;;;;;;;;;;;25.39;35.96;101510.19;4116827;28;19928;-65
2023/05/13 04:07:54;;;;;;;;;;;;;;;25.39;36.08;101514.75;4123485;28;19925;-65
2023/05/13 04:09:56;;;;;;;;;;;;;;;25.38;36.08;101516.56;4123609;28;19968;-64
2023/05/13 04:11:57;;;;;;;;;;;;;;;25.39;35.89;101517.44;4117960;28;20435;-65
2023/05/13 04:13:59;;;;;;;;;;;;;;;25.38;36.15;101513.88;4127544;28;20318;-65
2023/05/13 04:16:01;;;;;;;;;;;;;;;25.39;36.22;101522.81;4117199;28;20522;-65
2023/05/13 04:18:02;;;;;;;;;;;;;;;25.39;35.82;101520.13;4121528;28;20001;-65
2023/05/13 04:20:04;;;;;;;;;;;;;;;25.39;36.11;101520.97;4125185;28;19922;-65
2023/05/13 04:22:06;;;;;;;;;;;;;;;25.39;36.03;101526.34;4116885;28;20405;-65
2023/05/13 04:24:07;;;;;;;;;;;;;;;25.38;36.12;101523.81;4120119;28;19988;-65
2023/05/13 04:26:09;;;;;;;;;;;;;;;25.40;36.07;101535.31;4132626;28;19922;-65
2023/05/13 04:28:11;;;;;;;;;;;;;;;25.39;36.17;101531.75;4128881;28;19944;-65
2023/05/13 04:30:13;;;;;;;;;;;;;;;25.39;35.94;101536.28;4126327;28;20372;-65
2023/05/13 04:32:20;;;;;;;;;;;;;;;25.38;36.07;101531.88;4117301;28;20283;-65
2023/05/13 04:34:21;;;;;;;;;;;;;;;25.38;36.00;101531.88;4126383;28;19925;-65
2023/05/13 04:36:23;;;;;;;;;;;;;;;25.36;36.03;101530.13;4132806;28;19926;-66
2023/05/13 04:38:24;;;;;;;;;;;;;;;25.38;36.02;101531.88;4128445;28;19930;-65
2023/05/13 04:40:26;;;;;;;;;;;;;;;25.37;36.13;101533.66;4127273;28;19977;-66
2023/05/13 04:42:27;;;;;;;;;;;;;;;25.38;35.83;101530.03;4116776;28;19926;-65
2023/05/13 04:44:29;;;;;;;;;;;;;;;25.38;36.10;101538.09;4124301;28;19928;-65
2023/05/13 04:46:30;;;;;;;;;;;;;;;25.39;35.87;101537.13;4120083;28;19922;-66
2023/05/13 04:48:32;;;;;;;;;;;;;;;25.38;35.80;101532.72;4116988;28;19922;-66
2023/05/13 04:50:34;;;;;;;;;;;;;;;25.39;35.83;101545.22;4127661;28;19998;-66
2023/05/13 04:52:36;;;;;;;;;;;;;;;25.38;35.90;101542.66;4116910;28;19922;-66
2023/05/13 04:54:38;;;;;;;;;;;;;;;25.38;36.06;101548.03;4121739;28;19931;-66
2023/05/13 04:56:40;;;;;;;;;;;;;;;25.36;35.97;101557.06;4121383;28;19977;-65
2023/05/13 04:58:41;;;;;;;;;;;;;;;25.36;35.88;101556.22;4117987;28;19922;-66
2023/05/13 05:00:43;;;;;;;;;;;;;;;25.36;35.88;101557.06;4128452;28;20362;-66
2023/05/13 05:02:44;;;;;;;;;;;;;;;25.35;36.14;101559.91;4132814;28;19922;-66
2023/05/13 05:04:48;;;;;;;;;;;;;;;25.38;35.91;101564.19;4127540;28;19929;-66
2023/05/13 05:06:49;;;;;;;;;;;;;;;25.37;35.80;101565.97;4126438;28;20016;-66
2023/05/13 05:08:51;;;;;;;;;;;;;;;25.39;36.07;101563.22;4132101;28;19921;-66
2023/05/13 05:10:52;;;;;;;;;;;;;;;25.39;35.83;101569.44;4120723;28;19933;-65
2023/05/13 05:12:54;;;;;;;;;;;;;;;25.39;36.21;101571.28;4132267;28;19922;-66
2023/05/13 05:14:55;;;;;;;;;;;;;;;25.27;36.05;101552.47;4127227;28;19991;-65
2023/05/13 05:16:57;;;;;;;;;;;;;;;25.38;35.89;101567.72;4124424;28;20060;-65
2023/05/13 05:18:58;;;;;;;;;;;;;;;25.36;35.84;101581.31;4132351;28;19922;-66
2023/05/13 05:21:00;;;;;;;;;;;;;;;25.37;36.01;101579.44;4120708;28;19989;-65
2023/05/13 05:23:03;;;;;;;;;;;;;;;25.36;35.73;101583.16;4118260;28;19929;-66
2023/05/13 05:25:04;;;;;;;;;;;;;;;25.36;35.98;101585.84;4101572;28;19926;-66
2023/05/13 05:27:06;;;;;;;;;;;;;;;25.35;36.07;101587.66;4115825;28;19928;-65
2023/05/13 05:29:07;;;;;;;;;;;;;;;25.36;35.92;101585.84;4116574;28;19925;-65
2023/05/13 05:31:09;;;;;;;;;;;;;;;25.36;35.97;101589.38;4106244;28;20384;-66
2023/05/13 05:33:13;;;;;;;;;;;;;;;25.38;35.95;101599.19;4114200;28;19922;-66
2023/05/13 05:35:15;;;;;;;;;;;;;;;25.38;36.00;101604.59;4111194;28;20296;-65
2023/05/13 05:37:17;;;;;;;;;;;;;;;25.38;35.92;101602.75;4105357;28;19922;-65
2023/05/13 05:39:19;;;;;;;;;;;;;;;25.39;35.87;101607.16;4102951;28;20345;-65
2023/05/13 05:41:21;;;;;;;;;;;;;;;25.39;35.96;101609.00;4106748;28;19922;-64
2023/05/13 05:43:22;;;;;;;;;;;;;;;25.39;35.92;101609.00;4103362;28;20285;-66
2023/05/13 05:45:24;;;;;;;;;;;;;;;25.39;35.94;101611.69;4100495;28;19922;-65
2023/05/13 05:47:25;;;;;;;;;;;;;;;25.38;35.95;101609.97;4110843;28;20463;-65
2023/05/13 05:49:27;;;;;;;;;;;;;;;25.37;35.71;101611.75;4100026;29;19929;-66
2023/05/13 05:51:28;;;;;;;;;;;;;;;25.38;35.77;101618.06;4106416;28;19930;-66
2023/05/13 05:53:30;;;;;;;;;;;;;;;25.36;35.77;101613.63;4105103;28;20013;-65
2023/05/13 05:55:32;;;;;;;;;;;;;;;25.38;35.91;101618.91;4099396;28;19922;-65
2023/05/13 05:57:33;;;;;;;;;;;;;;;25.39;35.72;101625.16;4110309;28;19922;-66
2023/05/13 05:59:35;;;;;;;;;;;;;;;25.39;36.00;101627.84;4099956;28;19953;-65
2023/05/13 06:01:36;;;;;;;;;;;;;;;25.40;35.95;101624.16;4104650;28;19922;-66
2023/05/13 06:03:38;;;;;;;;;;;;;;;25.42;35.93;101635.66;4106580;28;20013;-65
2023/05/13 06:05:40;;;;;;;;;;;;;;;25.41;35.66;101626.72;4103394;28;19923;-65
2023/05/13 06:07:41;;;;;;;;;;;;;;;25.40;35.88;101630.41;4111064;28;19969;-66
2023/05/13 06:09:43;;;;;;;;;;;;;;;25.40;35.94;101635.78;4082825;29;19923;-66
2023/05/13 06:11:44;;;;;;;;;;;;;;;25.39;35.61;101631.38;4102574;28;20369;-66
2023/05/13 06:13:46;;;;;;;;;;;;;;;25.40;35.55;101643.03;4107852;28;19926;-66
2023/05/13 06:15:47;;;;;;;;;;;;;;;25.39;35.71;101639.47;4098773;29;19933;-66
2023/05/13 06:17:48;;;;;;;;;;;;;;;25.38;35.67;101643.13;4109798;28;20402;-66
2023/05/13 06:19:50;;;;;;;;;;;;;;;25.38;35.82;101637.75;4083979;29;20017;-66
2023/05/13 06:21:51;;;;;;;;;;;;;;;25.39;35.91;101650.22;4100860;28;20380;-66
2023/05/13 06:23:53;;;;;;;;;;;;;;;25.40;36.07;101651.09;4100309;28;20411;-65
2023/05/13 06:25:56;;;;;;;;;;;;;;;25.39;36.00;101644.84;4103601;28;20387;-66
2023/05/13 06:27:57;;;;;;;;;;;;;;;25.39;35.75;101649.38;4111129;28;19948;-65
2023/05/13 06:30:02;;;;;;;;;;;;;;;25.39;35.90;101660.16;4102087;28;19926;-66
2023/05/13 06:32:03;;;;;;;;;;;;;;;25.38;35.87;101656.59;4100606;28;20341;-65
2023/05/13 06:34:05;;;;;;;;;;;;;;;25.39;35.76;101665.53;4114493;28;19948;-65
2023/05/13 06:36:08;;;;;;;;;;;;;;;25.38;35.77;101666.53;4114341;28;19981;-66
2023/05/13 06:38:09;;;;;;;;;;;;;;;25.37;35.52;101665.63;4111173;28;19932;-65
2023/05/13 06:40:11;;;;;;;;;;;;;;;25.37;35.66;101676.38;4103180;28;19929;-66
2023/05/13 06:42:13;;;;;;;;;;;;;;;25.38;35.78;101667.38;4083370;29;20315;-66
2023/05/13 06:44:14;;;;;;;;;;;;;;;25.39;35.90;101670.94;4110036;28;20308;-65
2023/05/13 06:46:16;;;;;;;;;;;;;;;25.38;35.75;101672.75;4096853;29;20044;-66
2023/05/13 06:48:17;;;;;;;;;;;;;;;25.40;35.69;101669.94;4105130;28;19925;-65
2023/05/13 06:50:19;;;;;;;;;;;;;;;25.39;35.63;101665.53;4105038;28;19930;-66
2023/05/13 06:52:21;;;;;;;;;;;;;;;25.39;35.84;101669.06;4099684;28;19930;-66
2023/05/13 06:54:22;;;;;;;;;;;;;;;25.40;35.87;101676.19;4109699;28;19937;-66
2023/05/13 06:56:24;;;;;;;;;;;;;;;25.42;35.65;101678.72;4098504;29;19953;-65
2023/05/13 06:58:26;;;;;;;;;;;;;;;25.42;35.66;101676.03;4103167;28;19922;-65
2023/05/13 07:00:28;;;;;;;;;;;;;;;25.40;35.60;101676.19;4106544;28;20061;-65
2023/05/13 07:02:30;;;;;;;;;;;;;;;25.42;35.77;101679.59;4099221;29;19926;-66
2023/05/13 07:04:31;;;;;;;;;;;;;;;25.42;35.68;101676.91;4104161;28;20041;-66
2023/05/13 07:06:33;;;;;;;;;;;;;;;25.43;35.56;101677.75;4085376;29;20029;-66
2023/05/13 07:08:35;;;;;;;;;;;;;;;25.42;35.52;101685.00;4102169;28;19922;-65
2023/05/13 07:10:36;;;;;;;;;;;;;;;25.42;35.46;101673.34;4106063;28;20327;-65
2023/05/13 07:12:37;;;;;;;;;;;;;;;25.42;35.46;101686.81;4114412;28;19922;-65
2023/05/13 07:14:39;;;;;;;;;;;;;;;25.43;35.60;101680.44;4103526;28;19933;-66
2023/05/13 07:16:40;;;;;;;;;;;;;;;25.44;35.39;101676.78;4112701;28;19922;-66
2023/05/13 07:18:42;;;;;;;;;;;;;;;25.44;35.84;101676.78;4113352;28;20287;-66
2023/05/13 07:20:44;;;;;;;;;;;;;;;25.45;35.58;101681.19;4109413;28;19926;-66
2023/05/13 07:22:45;;;;;;;;;;;;;;;25.44;35.70;101680.31;4098224;28;20396;-66
2023/05/13 07:24:47;;;;;;;;;;;;;;;25.44;35.51;101680.31;4101379;28;19969;-66
2023/05/13 07:26:48;;;;;;;;;;;;;;;25.44;35.79;101682.16;4111172;28;19981;-66
2023/05/13 07:28:50;;;;;;;;;;;;;;;25.44;35.52;101687.56;4113477;28;19926;-65
2023/05/13 07:30:52;;;;;;;;;;;;;;;25.44;35.39;101676.78;4103691;28;19922;-65
2023/05/13 07:32:53;;;;;;;;;;;;;;;25.44;35.98;101676.78;4114594;28;19926;-66
2023/05/13 07:34:55;;;;;;;;;;;;;;;25.45;35.63;101679.34;4109290;28;19926;-66
2023/05/13 07:36:56;;;;;;;;;;;;;;;25.44;35.55;101680.31;4103234;28;19929;-66
2023/05/13 07:38:58;;;;;;;;;;;;;;;25.45;35.82;101684.72;4107678;28;20395;-66
2023/05/13 07:40:59;;;;;;;;;;;;;;;25.45;35.82;101682.03;4103547;28;19926;-65
2023/05/13 07:43:01;;;;;;;;;;;;;;;25.46;35.71;101690.97;4114775;28;19949;-66
2023/05/13 07:45:03;;;;;;;;;;;;;;;25.46;35.68;101689.13;4108292;28;19923;-66
2023/05/13 07:47:04;;;;;;;;;;;;;;;25.47;35.61;101698.06;4107399;28;20403;-66
2023/05/13 07:49:07;;;;;;;;;;;;;;;25.47;35.82;101704.31;4114514;28;20438;-66
2023/05/13 07:51:09;;;;;;;;;;;;;;;25.46;35.62;101699.91;4105143;28;20224;-66
2023/05/13 07:53:11;;;;;;;;;;;;;;;25.42;35.94;101700.28;4113509;28;19977;-64
2023/05/13 07:55:12;;;;;;;;;;;;;;;25.29;35.99;101703.13;4109180;28;19922;-65
2023/05/13 07:57:14;;;;;;;;;;;;;;;25.15;36.28;101701.56;4105727;28;19922;-65
2023/05/13 07:59:16;;;;;;;;;;;;;;;24.98;36.72;101705.63;4114573;28;19922;-65
2023/05/13 08:01:18;;;;;;;;;;;;;;;24.87;36.71;101707.38;4102140;28;19945;-66
2023/05/13 08:03:19;;;;;;;;;;;;;;;24.77;36.69;101710.94;4113115;28;19930;-67
2023/05/13 08:05:21;;;;;;;;;;;;;;;24.67;37.08;101702.75;4084846;29;19923;-66
2023/05/13 08:07:23;;;;;;;;;;;;;;;24.58;37.21;101708.81;4098041;29;20374;-65
2023/05/13 08:09:24;;;;;;;;;;;;;;;24.46;37.24;101708.81;4098513;29;19945;-64
2023/05/13 08:11:26;;;;;;;;;;;;;;;24.39;37.56;101704.91;4107159;28;20015;-65
2023/05/13 08:13:28;;;;;;;;;;;;;;;24.36;37.59;101706.00;4101083;28;19927;-65
2023/05/13 08:15:29;;;;;;;;;;;;;;;24.33;37.43;101711.59;4098635;28;20329;-65
2023/05/13 08:17:31;;;;;;;;;;;;;;;24.16;37.46;101706.72;4109068;28;19969;-66
2023/05/13 08:19:32;;;;;;;;;;;;;;;24.07;38.01;101701.06;4098354;29;20316;-66
2023/05/13 08:21:34;;;;;;;;;;;;;;;24.06;37.52;101711.94;4105030;28;19922;-66
2023/05/13 08:23:36;;;;;;;;;;;;;;;23.99;38.10;101718.75;4119610;28;19926;-65
2023/05/13 08:25:46;;;;;;;;;;;;;;;23.91;37.96;101712.13;4117808;28;19926;-64
2023/05/13 08:27:48;;;;;;;;;;;;;;;23.85;38.32;101709.91;4128045;28;19922;-66
2023/05/13 08:29:49;;;;;;;;;;;;;;;23.78;38.12;101716.72;4117206;28;19926;-66
2023/05/13 08:31:52;;;;;;;;;;;;;;;23.70;38.12;101721.81;4124284;28;19922;-66
2023/05/13 08:33:54;;;;;;;;;;;;;;;23.62;38.38;101717.00;4121675;28;19922;-66
2023/05/13 08:35:56;;;;;;;;;;;;;;;23.54;38.36;101722.09;4116991;28;19977;-66
2023/05/13 08:37:57;;;;;;;;;;;;;;;23.46;38.46;101725.34;4130317;28;19992;-66
2023/05/13 08:40:00;;;;;;;;;;;;;;;23.44;38.77;101721.94;4133181;28;19929;-66
2023/05/13 08:42:02;;;;;;;;;;;;;;;23.38;38.62;101725.91;4116694;28;19941;-66
2023/05/13 08:44:05;;;;;;;;;;;;;;;23.36;38.95;101724.31;4116766;28;19966;-66
2023/05/13 08:46:11;;;;;;;;;;;;;;;23.33;38.61;101728.09;4115166;28;20262;-66
2023/05/13 08:48:14;;;;;;;;;;;;;;;23.28;38.84;101720.38;4117733;28;19981;-66
2023/05/13 08:50:16;;;;;;;;;;;;;;;23.23;39.00;101721.69;4131598;28;20398;-66
2023/05/13 08:52:18;;;;;;;;;;;;;;;23.16;39.05;101723.06;4127706;28;19922;-66
2023/05/13 08:54:19;;;;;;;;;;;;;;;23.09;39.31;101720.84;4125775;28;19929;-66
2023/05/13 08:56:27;;;;;;;;;;;;;;;23.06;39.51;101718.38;4131506;28;19960;-64
2023/05/13 08:58:28;;;;;;;;;;;;;;;23.04;39.47;101714.94;4121819;28;19929;-65
2023/05/13 09:00:30;;;;;;;;;;;;;;;23.02;39.34;101713.34;4116025;28;19926;-65
2023/05/13 09:02:32;;;;;;;;;;;;;;;22.99;39.44;101714.44;4116666;28;20072;-65
2023/05/13 09:04:36;;;;;;;;;;;;;;;22.97;39.89;101716.38;4113970;28;20339;-66
2023/05/13 09:06:38;;;;;;;;;;;;;;;22.99;39.79;101711.75;4096483;28;19923;-66
2023/05/13 09:08:39;;;;;;;;;;;;;;;23.00;39.96;101717.97;4119160;28;19921;-62
2023/05/13 09:10:41;;;;;;;;;;;;;;;22.96;39.81;101711.97;4127454;28;19949;-67
2023/05/13 09:12:43;;;;;;;;;;;;;;;22.91;39.54;101719.50;4117991;28;19922;-70
2023/05/13 09:14:44;;;;;;;;;;;;;;;22.91;40.00;101722.19;4115398;28;19925;-66
2023/05/13 09:16:46;;;;;;;;;;;;;;;22.87;39.79;101717.97;4115490;28;20322;-63
2023/05/13 09:18:48;;;;;;;;;;;;;;;22.86;39.81;101721.66;4115451;28;19983;-67
2023/05/13 09:20:50;;;;;;;;;;;;;;;22.83;39.82;101721.88;4115729;28;19926;-67
2023/05/13 09:23:03;;;;;;;;;;;;;;;22.80;39.93;101720.25;4116132;28;19922;-63
2023/05/13 09:25:06;;;;;;;;;;;;;;;22.77;39.88;101724.03;4102829;28;20346;-63
2023/05/13 09:27:08;;;;;;;;;;;;;;;22.76;40.41;101721.44;4119389;28;19930;-67
2023/05/13 09:29:14;;;;;;;;;;;;;;;22.81;40.23;101722.81;4126609;28;19930;-66
2023/05/13 09:31:31;;;;;;;;;;;;;;;22.83;40.43;101725.38;4117336;28;20288;-63
2023/05/13 09:33:32;;;;;;;;;;;;;;;22.84;39.81;101727.09;4119790;28;19940;-63
2023/05/13 09:35:44;;;;;;;;;;;;;;;22.86;40.09;101732.38;4130810;28;19926;-62
2023/05/13 09:37:46;;;;;;;;;;;;;;;22.90;40.00;101729.34;4118575;28;19922;-61
2023/05/13 09:39:50;;;;;;;;;;;;;;;22.92;40.20;101729.25;4118892;28;20198;-63
2023/05/13 09:41:52;;;;;;;;;;;;;;;22.95;40.50;101731.69;4132021;28;19929;-64
2023/05/13 09:43:53;;;;;;;;;;;;;;;22.99;40.43;101725.16;4125911;28;19934;-62
2023/05/13 09:45:55;;;;;;;;;;;;;;;23.01;40.05;101723.22;4114910;28;19922;-63
2023/05/13 09:47:57;;;;;;;;;;;;;;;22.94;40.22;101727.31;4105526;28;20277;-62
2023/05/13 09:50:00;;;;;;;;;;;;;;;22.87;40.30;101734.06;4120317;28;19992;-61
2023/05/13 09:52:02;;;;;;;;;;;;;;;22.79;39.95;101722.06;4131740;28;19933;-60
2023/05/13 09:54:05;;;;;;;;;;;;;;;22.79;40.54;101721.22;4121810;28;19926;-60
2023/05/13 09:56:08;;;;;;;;;;;;;;;22.81;40.13;101727.34;4123873;28;19922;-61
2023/05/13 09:58:10;;;;;;;;;;;;;;;22.80;40.13;101715.75;4116136;28;19929;-61
2023/05/13 10:00:12;;;;;;;;;;;;;;;22.81;40.21;101720.16;4125844;28;20024;-62
2023/05/13 10:02:33;;;;;;;;;;;;;;;22.77;39.96;101718.66;4112108;28;20106;-62
2023/05/13 10:04:35;;;;;;;;;;;;;;;22.70;40.12;101713.81;4122306;28;19929;-61
2023/05/13 10:06:37;;;;;;;;;;;;;;;22.72;40.17;101711.91;4123115;28;19926;-62
2023/05/13 10:08:39;;;;;;;;;;;;;;;22.71;40.18;101711.06;4132023;28;19928;-60
2023/05/13 10:10:44;;;;;;;;;;;;;;;22.73;40.37;101706.41;4119961;28;19976;-62
2023/05/13 10:12:46;;;;;;;;;;;;;;;22.71;40.64;101708.38;4099637;29;19929;-62
2023/05/13 10:14:48;;;;;;;;;;;;;;;22.69;40.31;101712.13;4114858;28;19922;-61
2023/05/13 10:16:50;;;;;;;;;;;;;;;22.68;40.61;101718.47;4122682;28;19980;-61
2023/05/13 10:18:52;;;;;;;;;;;;;;;22.71;40.51;101710.19;4115665;28;19922;-62
2023/05/13 10:20:54;;;;;;;;;;;;;;;22.70;40.25;101716.50;4125695;28;19927;-61
2023/05/13 10:22:56;;;;;;;;;;;;;;;22.68;40.82;101713.09;4113159;28;20369;-61
2023/05/13 10:24:59;;;;;;;;;;;;;;;22.67;40.75;101711.38;4100940;28;20408;-62
2023/05/13 10:27:01;;;;;;;;;;;;;;;22.64;40.76;101712.47;4105248;28;20384;-64